Time;durP1;ratioP1;P1;durP2;ratioP2;P2;SDS_P1;SDS_P2;PMS_P1;PMS_P2;Temp;Humidity;BMP_temperature;BMP_pressure;BME280_temperature;BME280_humidity;BME280_pressure;Samples;Min_cycle;Max_cycle;Signal;HPM_P1;HPM_P2
2022/03/02 00:00:13;;;;;;;10.05;9.07;;;;;;;6.04;38.71;101168.34;10317011;28;20143;-63
2022/03/02 00:05:14;;;;;;;10.82;9.73;;;;;;;5.97;38.78;101162.47;10322151;28;20058;-63
2022/03/02 00:10:16;;;;;;;10.80;9.35;;;;;;;6.03;38.89;101170.13;10324804;28;20109;-63
2022/03/02 00:15:17;;;;;;;10.70;8.60;;;;;;;6.22;39.04;101171.91;10331207;28;20243;-62
2022/03/02 00:20:19;;;;;;;11.77;9.65;;;;;;;6.11;39.79;101169.75;10319485;28;20427;-62
2022/03/02 00:25:20;;;;;;;13.05;10.27;;;;;;;5.95;39.89;101165.16;10317046;28;20736;-62
2022/03/02 00:30:23;;;;;;;10.75;9.73;;;;;;;5.76;39.73;101162.50;10319836;28;20041;-63
2022/03/02 00:35:26;;;;;;;11.35;8.80;;;;;;;5.54;39.70;101143.28;10313670;28;20046;-62
2022/03/02 00:40:29;;;;;;;10.38;9.30;;;;;;;5.54;39.73;101141.50;10313727;28;20137;-61
2022/03/02 00:45:31;;;;;;;10.10;8.68;;;;;;;5.55;39.60;101143.19;10316831;28;20529;-63
2022/03/02 00:50:34;;;;;;;11.25;9.35;;;;;;;5.57;39.87;101138.72;10318067;28;20123;-62
2022/03/02 00:55:36;;;;;;;10.15;9.13;;;;;;;5.44;40.29;101130.47;10318946;28;20084;-63
2022/03/02 01:00:38;;;;;;;11.00;9.68;;;;;;;5.30;40.95;101110.00;10319772;28;20064;-63
2022/03/02 01:05:40;;;;;;;11.00;8.52;;;;;;;5.29;41.14;101118.81;10315288;28;20077;-63
2022/03/02 01:10:41;;;;;;;10.90;9.80;;;;;;;5.13;41.32;101096.69;10315212;28;20555;-64
2022/03/02 01:15:43;;;;;;;12.18;10.70;;;;;;;5.09;41.49;101100.41;10319457;28;20501;-63
2022/03/02 01:20:44;;;;;;;11.38;9.60;;;;;;;5.07;41.76;101102.22;10314407;28;20081;-63
2022/03/02 01:25:46;;;;;;;11.40;10.20;;;;;;;4.79;41.71;101050.69;10317011;28;20128;-63
2022/03/02 01:30:47;;;;;;;12.38;9.95;;;;;;;5.02;41.67;101089.25;10315555;28;20097;-63
2022/03/02 01:35:49;;;;;;;10.68;9.57;;;;;;;4.85;41.88;101062.72;10317256;28;20054;-63
2022/03/02 01:40:50;;;;;;;10.20;9.07;;;;;;;4.88;41.22;101042.34;10314889;28;20054;-63
2022/03/02 01:45:51;;;;;;;11.95;9.15;;;;;;;5.14;41.11;101072.84;10320172;28;20043;-63
2022/03/02 01:50:53;;;;;;;11.65;10.15;;;;;;;5.10;41.23;101065.16;10317221;28;20114;-63
2022/03/02 01:55:55;;;;;;;9.18;8.27;;;;;;;5.07;41.41;101058.22;10319996;28;20056;-64
2022/03/02 02:00:58;;;;;;;10.10;8.88;;;;;;;5.08;41.19;101061.72;10316414;28;20141;-63
2022/03/02 02:06:02;;;;;;;9.68;8.45;;;;;;;5.07;40.68;101055.56;10313543;28;20050;-63
2022/03/02 02:11:03;;;;;;;10.07;9.07;;;;;;;4.95;41.74;101058.75;10314292;28;20125;-64
2022/03/02 02:16:06;;;;;;;10.30;9.20;;;;;;;4.85;41.79;101050.41;10316044;28;20758;-63
2022/03/02 02:21:09;;;;;;;10.98;9.75;;;;;;;4.85;41.75;101047.78;10316049;28;20082;-64
2022/03/02 02:26:11;;;;;;;9.50;8.60;;;;;;;4.85;41.79;101042.50;10325375;28;20133;-61
2022/03/02 02:31:12;;;;;;;10.20;9.02;;;;;;;4.95;42.05;101046.44;10312669;28;20071;-63
2022/03/02 02:36:15;;;;;;;9.45;8.45;;;;;;;4.95;41.71;101040.28;10318625;28;20536;-63
2022/03/02 02:41:18;;;;;;;10.23;9.15;;;;;;;5.07;41.36;101037.09;10310575;28;20070;-63
2022/03/02 02:46:20;;;;;;;10.32;8.48;;;;;;;5.16;41.89;101038.47;10313021;28;20050;-65
2022/03/02 02:51:21;;;;;;;8.88;8.02;;;;;;;4.86;41.30;101001.97;10311474;28;20623;-64
2022/03/02 02:56:23;;;;;;;11.98;9.75;;;;;;;4.68;41.81;101001.00;10312565;28;20046;-64
2022/03/02 03:01:24;;;;;;;9.40;8.45;;;;;;;4.74;42.20;101015.72;10311012;28;20053;-63
2022/03/02 03:06:26;;;;;;;9.77;8.77;;;;;;;4.77;42.31;101011.19;10307866;28;20522;-63
2022/03/02 03:11:27;;;;;;;10.38;9.27;;;;;;;4.95;42.39;101021.81;10313164;28;20564;-63
2022/03/02 03:16:28;;;;;;;11.52;8.90;;;;;;;4.91;42.11;101023.75;10311643;28;20062;-63
2022/03/02 03:21:30;;;;;;;10.57;9.52;;;;;;;4.95;42.22;101019.19;10313850;28;20046;-63
2022/03/02 03:26:31;;;;;;;11.55;9.23;;;;;;;4.77;42.66;101010.31;10313004;28;20062;-63
2022/03/02 03:31:33;;;;;;;10.73;9.52;;;;;;;4.60;43.48;100988.16;10308668;28;20053;-63
2022/03/02 03:36:34;;;;;;;12.32;10.45;;;;;;;4.59;43.59;101001.41;10319655;28;20053;-64
2022/03/02 03:41:36;;;;;;;12.50;9.52;;;;;;;4.49;43.73;100985.16;10318828;28;20159;-63
2022/03/02 03:46:37;;;;;;;10.18;9.18;;;;;;;4.63;44.06;101002.16;10320758;28;20050;-63
2022/03/02 03:51:39;;;;;;;11.05;9.63;;;;;;;4.59;44.60;100990.88;10335140;28;20148;-64
2022/03/02 03:56:40;;;;;;;15.70;12.52;;;;;;;4.54;44.73;100988.44;10349026;28;20046;-63
2022/03/02 04:01:42;;;;;;;15.82;12.25;;;;;;;4.42;45.31;100986.34;10329436;28;20436;-63
2022/03/02 04:06:43;;;;;;;11.98;10.77;;;;;;;4.39;45.90;100994.38;10323674;28;20116;-64
2022/03/02 04:11:45;;;;;;;13.75;11.38;;;;;;;4.36;46.05;100989.25;10322775;28;20049;-63
2022/03/02 04:16:46;;;;;;;12.50;11.07;;;;;;;4.21;46.38;100975.78;10350989;28;20056;-63
2022/03/02 04:21:49;;;;;;;13.30;11.27;;;;;;;4.30;46.21;100989.50;10325418;28;20050;-62
2022/03/02 04:26:50;;;;;;;13.23;11.55;;;;;;;4.27;46.16;100969.41;10322346;28;20148;-61
2022/03/02 04:31:52;;;;;;;11.98;9.90;;;;;;;4.41;46.19;100976.72;10324027;28;20050;-61
2022/03/02 04:36:53;;;;;;;10.73;9.63;;;;;;;4.37;45.83;100975.16;10316719;28;20054;-63
2022/03/02 04:41:55;;;;;;;10.75;9.65;;;;;;;4.34;45.56;100965.59;10327946;28;20054;-62
2022/03/02 04:46:56;;;;;;;11.23;9.35;;;;;;;4.43;45.24;100974.88;10319349;28;20104;-64
2022/03/02 04:51:58;;;;;;;10.23;8.75;;;;;;;4.50;45.14;100976.31;10315835;28;20139;-62
2022/03/02 04:57:01;;;;;;;10.63;9.52;;;;;;;4.41;45.43;100969.69;10315552;28;20125;-63
2022/03/02 05:02:02;;;;;;;10.45;9.38;;;;;;;4.44;45.76;100973.94;10318498;28;20054;-62
2022/03/02 05:07:04;;;;;;;10.80;9.13;;;;;;;4.38;45.77;100961.91;10317991;28;20488;-63
2022/03/02 05:12:06;;;;;;;12.05;9.50;;;;;;;4.39;46.19;100963.59;10316334;28;20053;-62
2022/03/02 05:17:07;;;;;;;11.05;9.85;;;;;;;4.38;46.22;100961.03;10315937;28;20054;-64
2022/03/02 05:22:09;;;;;;;11.32;9.57;;;;;;;4.37;46.13;100951.44;10314188;28;20050;-62
2022/03/02 05:27:11;;;;;;;10.90;8.85;;;;;;;4.36;46.09;100941.81;10313832;28;20109;-63
2022/03/02 05:32:13;;;;;;;10.43;9.30;;;;;;;4.43;46.12;100951.16;10316455;28;20271;-61
2022/03/02 05:37:14;;;;;;;10.77;9.27;;;;;;;4.43;45.94;100953.78;10318339;28;20046;-63
2022/03/02 05:42:17;;;;;;;9.98;8.70;;;;;;;4.38;45.97;100966.31;10310372;28;20046;-62
2022/03/02 05:47:18;;;;;;;11.52;9.38;;;;;;;4.37;45.80;100961.97;10316222;28;20054;-65
2022/03/02 05:52:19;;;;;;;11.05;9.88;;;;;;;4.47;45.63;100965.06;10313496;28;20053;-62
2022/03/02 05:57:21;;;;;;;12.52;9.27;;;;;;;4.37;45.31;100948.78;10296257;28;20052;-63
2022/03/02 06:02:22;;;;;;;10.55;9.18;;;;;;;4.57;44.90;100953.19;10307930;28;20622;-63
2022/03/02 06:07:24;;;;;;;8.93;7.70;;;;;;;4.57;44.48;100947.91;10308979;28;20574;-63
2022/03/02 06:12:27;;;;;;;10.55;8.98;;;;;;;4.59;44.11;100962.75;10306174;28;20065;-64
2022/03/02 06:17:29;;;;;;;9.75;8.77;;;;;;;4.65;44.22;100958.09;10309001;28;20064;-63
2022/03/02 06:22:31;;;;;;;9.55;8.52;;;;;;;4.66;44.42;100951.91;10312604;28;20052;-63
2022/03/02 06:27:34;;;;;;;9.45;8.55;;;;;;;4.70;44.36;100962.25;10308693;28;20169;-64
2022/03/02 06:32:35;;;;;;;9.68;8.68;;;;;;;4.75;43.98;100954.13;10295200;28;20046;-63
2022/03/02 06:37:37;;;;;;;8.93;8.02;;;;;;;4.87;44.13;100958.84;10302318;28;20064;-63
2022/03/02 06:42:49;;;;;;;10.20;9.00;;;;;;;4.86;44.23;100951.84;10303834;28;20068;-62
2022/03/02 06:48:02;;;;;;;10.02;8.65;;;;;;;4.88;44.45;100950.03;10316265;28;20042;-61
2022/03/02 06:53:11;;;;;;;13.80;8.55;;;;;;;4.86;44.52;100940.47;10318537;28;20137;-62
2022/03/02 06:58:20;;;;;;;9.00;8.05;;;;;;;4.76;43.90;100916.31;10311222;28;20869;-62
2022/03/02 07:03:27;;;;;;;12.10;8.98;;;;;;;4.78;43.79;100906.53;10305509;28;20054;-63
2022/03/02 07:08:29;;;;;;;12.40;8.52;;;;;;;5.09;43.14;100948.19;10309668;28;20410;-62
2022/03/02 07:13:33;;;;;;;10.50;9.40;;;;;;;5.12;43.14;100953.31;10326351;28;20306;-63
2022/03/02 07:18:34;;;;;;;9.70;8.70;;;;;;;5.12;42.88;100949.81;10334733;28;20700;-63
2022/03/02 07:23:41;;;;;;;10.80;8.18;;;;;;;5.27;42.80;100951.75;10363532;28;20627;-63
2022/03/02 07:28:46;;;;;;;9.23;8.25;;;;;;;5.17;42.23;100939.91;10365425;28;20500;-62
2022/03/02 07:33:51;;;;;;;10.48;8.90;;;;;;;5.12;42.33;100918.16;10353445;28;20069;-62
2022/03/02 07:38:52;;;;;;;11.85;10.45;;;;;;;5.51;41.69;100961.19;10352761;28;20049;-62
2022/03/02 07:43:54;;;;;;;9.57;7.78;;;;;;;5.59;41.50;100946.69;10352196;28;20135;-61
2022/03/02 07:48:56;;;;;;;15.05;12.35;;;;;;;5.58;41.44;100944.13;10365534;28;20070;-61
2022/03/02 07:54:04;;;;;;;9.60;8.60;;;;;;;5.77;41.29;100959.94;10373584;28;20069;-64
2022/03/02 07:59:07;;;;;;;9.07;8.18;;;;;;;5.66;41.12;100916.41;10370759;28;20061;-63
2022/03/02 08:04:14;;;;;;;10.27;8.52;;;;;;;6.06;40.75;100950.56;10362953;28;20431;-63
2022/03/02 08:09:15;;;;;;;9.18;7.57;;;;;;;6.15;39.78;100943.97;10360208;28;21195;-61
2022/03/02 08:14:23;;;;;;;8.95;8.05;;;;;;;6.30;39.56;100951.13;10359227;28;20057;-61
2022/03/02 08:19:26;;;;;;;9.05;8.07;;;;;;;6.33;39.35;100952.75;10370454;28;20052;-62
2022/03/02 08:24:27;;;;;;;10.25;7.97;;;;;;;6.40;39.66;100958.59;10369342;28;20211;-61
2022/03/02 08:29:31;;;;;;;9.20;7.80;;;;;;;6.40;39.19;100948.03;10369753;28;20092;-59
2022/03/02 08:34:33;;;;;;;11.33;8.73;;;;;;;6.44;39.33;100949.53;10359867;28;20132;-63
2022/03/02 08:39:35;;;;;;;9.15;8.25;;;;;;;6.57;39.34;100952.41;10363288;28;20080;-61
2022/03/02 08:44:37;;;;;;;9.90;8.23;;;;;;;6.64;39.27;100946.72;10364856;28;20045;-62
2022/03/02 08:49:38;;;;;;;9.77;8.77;;;;;;;6.68;38.90;100950.91;10361717;28;20053;-62
2022/03/02 08:54:46;;;;;;;49.13;35.65;;;;;;;6.66;39.06;100950.13;10361091;28;20049;-62
2022/03/02 08:59:51;;;;;;;9.40;8.18;;;;;;;6.58;38.65;100952.34;10363410;28;20065;-62
2022/03/02 09:04:58;;;;;;;9.45;8.23;;;;;;;6.50;39.36;100933.34;10364582;28;20081;-61
2022/03/02 09:10:01;;;;;;;9.23;7.97;;;;;;;6.62;38.85;100959.19;10367397;28;20052;-62
2022/03/02 09:15:03;;;;;;;9.13;7.72;;;;;;;6.64;38.71;100959.09;10368601;28;20050;-61
2022/03/02 09:20:07;;;;;;;8.80;7.97;;;;;;;6.63;38.86;100952.94;10377746;28;20249;-61
2022/03/02 09:25:09;;;;;;;10.45;7.93;;;;;;;6.78;38.95;100953.91;10363895;28;20042;-60
2022/03/02 09:30:12;;;;;;;10.13;9.10;;;;;;;6.82;38.97;100946.69;10358502;28;20049;-63
2022/03/02 09:35:14;;;;;;;8.43;7.55;;;;;;;6.83;38.66;100945.72;10365050;28;20053;-61
2022/03/02 09:40:25;;;;;;;10.70;8.55;;;;;;;6.62;37.94;100906.28;10358319;28;20080;-62
2022/03/02 09:45:30;;;;;;;9.23;8.15;;;;;;;6.89;38.89;100925.09;10373375;28;20084;-61
2022/03/02 09:50:35;;;;;;;21.48;19.27;;;;;;;7.11;38.29;100931.00;10371489;28;20049;-62
2022/03/02 09:55:40;;;;;;;9.07;8.07;;;;;;;7.39;38.07;100936.47;10382780;28;20507;-67
2022/03/02 10:00:46;;;;;;;9.45;8.45;;;;;;;7.61;37.91;100928.16;10366726;28;20531;-64
2022/03/02 10:05:50;;;;;;;10.32;8.93;;;;;;;7.68;36.76;100918.03;10361653;28;20131;-62
2022/03/02 10:10:57;;;;;;;9.80;8.80;;;;;;;7.52;37.26;100917.22;10352065;28;20057;-64
2022/03/02 10:16:04;;;;;;;9.50;8.20;;;;;;;7.61;36.83;100916.69;10345594;28;20152;-64
2022/03/02 10:21:06;;;;;;;10.45;8.20;;;;;;;7.82;37.46;100929.66;10343182;28;20567;-64
2022/03/02 10:26:15;;;;;;;9.07;8.07;;;;;;;7.69;37.62;100914.47;10344251;28;20050;-58
2022/03/02 10:31:31;;;;;;;9.43;8.40;;;;;;;7.64;36.75;100929.78;10340090;28;22132;-63
2022/03/02 10:36:41;;;;;;;9.50;7.40;;;;;;;7.85;36.80;100910.91;10337263;28;20050;-62
2022/03/02 10:41:43;;;;;;;9.95;8.25;;;;;;;8.29;36.01;100912.72;10342441;28;20049;-64
2022/03/02 10:47:16;;;;;;;9.10;7.78;;;;;;;8.85;34.61;100915.50;10333205;28;20046;-66
2022/03/02 10:52:21;;;;;;;10.18;8.57;;;;;;;9.51;34.14;100905.13;10318686;28;20057;-66
2022/03/02 10:57:25;;;;;;;9.13;8.23;;;;;;;10.30;32.97;100895.38;10319938;28;20566;-65
2022/03/02 11:02:28;;;;;;;9.35;8.30;;;;;;;11.92;30.75;100888.19;10345697;28;20464;-61
2022/03/02 11:07:30;;;;;;;10.00;8.05;;;;;;;13.86;27.42;100859.38;10315120;28;20062;-62
2022/03/02 11:12:33;;;;;;;9.00;8.10;;;;;;;19.07;22.38;100881.56;10330013;28;20054;-61
2022/03/02 11:17:36;;;;;;;9.27;8.18;;;;;;;24.11;15.82;100866.13;10326916;28;20108;-64
2022/03/02 11:22:38;;;;;;;;;;;;;;;26.84;13.14;100875.94;10318805;28;21214;-61
2022/03/02 11:27:41;;;;;;;7.32;6.63;;;;;;;28.41;12.33;100862.66;10336029;28;19982;-61
2022/03/02 11:32:48;;;;;;;7.65;6.85;;;;;;;28.83;11.34;100844.47;10344849;28;20054;-62
2022/03/02 11:37:58;;;;;;;8.13;7.28;;;;;;;29.78;10.95;100831.06;10336260;28;20060;-61
2022/03/02 11:43:12;;;;;;;7.82;7.13;;;;;;;29.62;10.44;100836.19;10338266;28;20053;-63
2022/03/02 11:48:15;;;;;;;7.32;6.63;;;;;;;30.51;9.99;100831.69;10333333;28;20144;-63
2022/03/02 11:53:32;;;;;;;9.55;7.43;;;;;;;32.38;9.01;100805.22;10337491;28;20060;-63
2022/03/02 11:59:07;;;;;;;6.95;6.25;;;;;;;32.35;8.00;100813.16;10342516;28;20057;-61
2022/03/02 12:04:17;;;;;;;5.80;5.18;;;;;;;32.71;8.45;100797.94;10292185;28;20050;-61
2022/03/02 12:09:30;;;;;;;6.78;5.95;;;;;;;33.06;7.80;100802.16;10344630;28;20050;-61
2022/03/02 12:14:44;;;;;;;6.80;6.05;;;;;;;34.47;6.74;100789.94;10318234;28;20189;-61
2022/03/02 12:19:49;;;;;;;7.97;6.03;;;;;;;33.92;6.57;100770.03;10345543;28;20351;-63
2022/03/02 12:24:50;;;;;;;7.97;5.95;;;;;;;33.10;7.29;100775.72;10331963;28;20080;-61
2022/03/02 12:29:59;;;;;;;6.43;5.90;;;;;;;33.43;6.96;100748.97;10314292;28;20428;-61
2022/03/02 12:35:03;;;;;;;7.20;6.55;;;;;;;34.56;6.51;100756.25;10325033;28;20057;-61
2022/03/02 12:40:09;;;;;;;9.35;5.55;;;;;;;34.01;6.37;100751.03;10325109;28;20140;-61
2022/03/02 12:45:11;;;;;;;5.78;5.28;;;;;;;34.03;6.51;100735.03;10331196;28;20062;-61
2022/03/02 12:50:17;;;;;;;6.60;5.88;;;;;;;34.09;6.59;100733.94;10313982;28;20060;-62
2022/03/02 12:55:18;;;;;;;6.15;5.55;;;;;;;34.65;6.44;100699.31;10322774;28;20054;-61
2022/03/02 13:00:22;;;;;;;6.22;5.68;;;;;;;34.52;6.57;100711.75;10320875;28;20136;-61
2022/03/02 13:05:46;;;;;;;6.53;5.13;;;;;;;35.45;5.55;100698.81;10326597;28;20361;-63
2022/03/02 13:10:49;;;;;;;6.88;5.53;;;;;;;34.64;5.85;100706.78;10315852;28;20681;-62
2022/03/02 13:15:50;;;;;;;7.25;5.50;;;;;;;34.76;5.62;100723.13;10322011;28;20057;-63
2022/03/02 13:21:01;;;;;;;6.85;5.13;;;;;;;34.68;5.72;100709.81;10322751;28;20141;-64
2022/03/02 13:26:02;;;;;;;6.05;5.55;;;;;;;35.16;5.90;100704.91;10323778;28;20174;-62
2022/03/02 13:31:09;;;;;;;5.40;5.00;;;;;;;36.26;5.80;100705.19;10317540;28;20054;-62
2022/03/02 13:36:31;;;;;;;5.50;5.00;;;;;;;36.43;5.30;100701.25;10325326;28;20045;-64
2022/03/02 13:41:44;;;;;;;7.95;5.10;;;;;;;35.47;5.44;100693.81;10333567;28;20148;-64
2022/03/02 13:47:08;;;;;;;5.97;5.45;;;;;;;34.79;6.13;100691.38;10314960;28;20507;-62
2022/03/02 13:52:10;;;;;;;5.75;5.10;;;;;;;34.83;6.13;100673.94;10317690;28;20049;-64
2022/03/02 13:57:28;;;;;;;5.60;5.10;;;;;;;34.95;5.45;100678.38;10310429;28;20053;-63
2022/03/02 14:02:36;;;;;;;6.03;5.50;;;;;;;35.32;6.01;100680.84;10314836;28;21111;-61
2022/03/02 14:07:39;;;;;;;5.53;5.03;;;;;;;34.62;5.81;100667.56;10304659;28;20272;-64
2022/03/02 14:12:57;;;;;;;6.07;5.32;;;;;;;34.39;6.05;100663.34;10313627;28;20053;-64
2022/03/02 14:18:04;;;;;;;7.45;5.20;;;;;;;34.46;6.16;100669.44;10311938;28;20470;-65
2022/03/02 14:23:08;;;;;;;5.53;5.00;;;;;;;34.12;6.30;100669.06;10325217;28;20129;-63
2022/03/02 14:28:14;;;;;;;6.43;5.40;;;;;;;33.55;6.53;100652.22;10329385;28;20574;-64
2022/03/02 14:33:17;;;;;;;6.15;5.65;;;;;;;33.83;6.26;100656.53;10305948;28;20054;-64
2022/03/02 14:38:19;;;;;;;6.43;5.70;;;;;;;32.85;6.78;100654.16;10311437;28;20144;-62
2022/03/02 14:43:21;;;;;;;6.20;5.60;;;;;;;32.22;7.06;100651.91;10313665;28;20575;-63
2022/03/02 14:48:26;;;;;;;6.70;5.53;;;;;;;32.43;7.28;100628.16;10333668;28;20070;-62
2022/03/02 14:53:30;;;;;;;6.70;6.10;;;;;;;31.04;7.64;100642.00;10336880;28;20428;-62
2022/03/02 14:58:44;;;;;;;6.53;5.85;;;;;;;29.06;8.82;100637.38;10335923;28;20110;-61
2022/03/02 15:03:47;;;;;;;6.93;6.32;;;;;;;26.16;10.33;100628.06;10332397;28;20185;-61
2022/03/02 15:08:52;;;;;;;7.53;6.88;;;;;;;22.72;12.68;100636.53;10337389;28;20049;-62
2022/03/02 15:19:40;;;;;;;7.80;7.15;;;;;;;18.50;16.43;100633.31;10337705;28;20054;-61
2022/03/02 15:24:52;;;;;;;8.38;7.20;;;;;;;17.37;17.82;100628.13;10339355;28;21051;-61
2022/03/02 15:30:05;;;;;;;8.23;7.50;;;;;;;16.88;18.43;100632.16;10379881;28;20056;-60
2022/03/02 15:35:18;;;;;;;7.65;6.90;;;;;;;16.11;18.72;100629.03;10318244;28;20119;-60
2022/03/02 15:40:22;;;;;;;7.93;7.15;;;;;;;15.09;19.80;100635.16;10313478;28;20054;-60
2022/03/02 15:45:25;;;;;;;9.20;8.23;;;;;;;14.38;20.87;100618.38;10324313;28;20057;-63
2022/03/02 15:50:33;;;;;;;8.77;7.93;;;;;;;14.33;20.99;100615.25;10340912;28;20664;-60
2022/03/02 15:55:40;;;;;;;15.07;8.85;;;;;;;14.04;21.71;100618.72;10346647;28;20572;-61
2022/03/02 16:00:44;;;;;;;10.07;8.23;;;;;;;13.58;21.92;100623.63;10330783;28;20121;-61
2022/03/02 16:05:48;;;;;;;8.95;8.05;;;;;;;13.37;22.36;100626.34;10341192;28;20898;-60
2022/03/02 16:11:08;;;;;;;9.52;8.48;;;;;;;13.15;22.93;100631.81;10335776;28;20050;-61
2022/03/02 16:16:15;;;;;;;8.52;7.72;;;;;;;13.07;22.89;100633.28;10342678;28;20144;-63
2022/03/02 16:21:21;;;;;;;9.15;8.05;;;;;;;12.80;23.27;100624.97;10341512;28;20050;-61
2022/03/02 16:26:34;;;;;;;9.15;8.25;;;;;;;12.67;23.80;100620.66;10341624;28;20099;-61
2022/03/02 16:31:36;;;;;;;11.80;10.00;;;;;;;12.49;24.36;100623.03;10339524;28;20050;-61
2022/03/02 16:36:45;;;;;;;11.20;9.07;;;;;;;12.31;24.84;100625.41;10341756;28;20423;-60
2022/03/02 16:41:46;;;;;;;10.73;9.32;;;;;;;12.09;24.86;100626.28;10338164;28;20270;-62
2022/03/02 16:46:47;;;;;;;9.35;8.23;;;;;;;11.59;25.37;100585.81;10336541;28;20057;-61
2022/03/02 16:51:50;;;;;;;9.32;8.35;;;;;;;11.54;26.00;100625.31;10336687;28;20092;-60
2022/03/02 16:56:52;;;;;;;9.63;8.63;;;;;;;11.24;26.35;100619.59;10336534;28;20057;-61
2022/03/02 17:01:53;;;;;;;9.68;8.30;;;;;;;11.10;26.60;100623.31;10336331;28;20220;-60
2022/03/02 17:06:55;;;;;;;9.45;8.52;;;;;;;10.93;27.08;100624.63;10339208;28;20060;-60
2022/03/02 17:11:57;;;;;;;8.90;7.95;;;;;;;10.92;27.46;100638.91;10336875;28;20063;-60
2022/03/02 17:16:59;;;;;;;10.15;9.15;;;;;;;10.65;27.86;100622.34;10337339;28;20061;-62
2022/03/02 17:22:02;;;;;;;11.20;9.63;;;;;;;10.67;28.77;100647.03;10332758;28;20056;-60
2022/03/02 17:27:03;;;;;;;10.48;9.38;;;;;;;10.43;28.16;100619.50;10329186;28;20061;-60
2022/03/02 17:32:06;;;;;;;11.15;9.88;;;;;;;10.52;28.55;100644.53;10303524;28;20164;-60
2022/03/02 17:37:10;;;;;;;10.13;8.90;;;;;;;10.44;28.23;100646.94;10316908;28;20445;-61
2022/03/02 17:42:11;;;;;;;14.10;8.82;;;;;;;10.25;28.30;100655.38;10295910;28;20176;-60
2022/03/02 17:47:13;;;;;;;10.40;8.70;;;;;;;10.16;28.85;100648.91;10300545;28;20060;-61
2022/03/02 17:52:15;;;;;;;8.52;7.55;;;;;;;10.15;28.67;100655.22;10305666;28;20173;-61
2022/03/02 17:57:19;;;;;;;9.60;8.50;;;;;;;10.09;29.17;100653.00;10307567;28;20061;-61
2022/03/02 18:02:21;;;;;;;;;;;;;;;9.86;29.51;100639.53;10308974;28;20496;-61
2022/03/02 18:07:24;;;;;;;11.00;9.55;;;;;;;9.62;29.64;100641.25;10313847;28;19929;-61
2022/03/02 18:12:27;;;;;;;11.25;9.57;;;;;;;9.75;29.98;100655.41;10303199;28;20131;-63
2022/03/02 18:17:28;;;;;;;9.73;8.73;;;;;;;9.73;30.04;100644.88;10309536;28;20566;-62
2022/03/02 18:22:30;;;;;;;10.80;9.80;;;;;;;9.46;30.88;100638.84;10308369;28;20616;-61
2022/03/02 18:27:31;;;;;;;14.02;9.95;;;;;;;9.46;31.09;100644.16;10296514;28;20124;-61
2022/03/02 18:32:33;;;;;;;13.15;10.00;;;;;;;9.37;31.24;100645.66;10301688;28;20062;-62
2022/03/02 18:37:34;;;;;;;11.98;10.40;;;;;;;9.29;31.81;100643.53;10300032;28;20798;-62
2022/03/02 18:42:36;;;;;;;11.57;10.48;;;;;;;9.17;31.81;100644.34;10306060;28;20785;-62
2022/03/02 18:47:37;;;;;;;10.95;9.35;;;;;;;9.03;32.05;100642.63;10303359;28;20200;-62
2022/03/02 18:52:39;;;;;;;14.70;10.80;;;;;;;8.94;32.23;100641.44;10305795;28;20189;-61
2022/03/02 18:57:40;;;;;;;13.45;10.18;;;;;;;9.10;32.58;100633.31;10304036;28;20495;-62
2022/03/02 19:02:44;;;;;;;12.80;10.93;;;;;;;9.14;32.51;100640.13;10324863;28;20312;-62
2022/03/02 19:07:47;;;;;;;13.18;10.68;;;;;;;9.18;33.65;100636.28;10314084;28;20672;-62
2022/03/02 19:12:48;;;;;;;13.73;12.00;;;;;;;9.25;32.59;100635.84;10300228;28;20050;-62
2022/03/02 19:17:50;;;;;;;13.20;11.48;;;;;;;9.09;33.49;100644.03;10299075;28;20074;-63
2022/03/02 19:22:53;;;;;;;14.13;11.80;;;;;;;9.01;33.22;100639.25;10314365;28;20147;-62
2022/03/02 19:27:54;;;;;;;15.35;11.88;;;;;;;8.92;33.65;100639.88;10326455;28;20089;-62
2022/03/02 19:32:56;;;;;;;16.17;14.20;;;;;;;8.72;34.27;100647.38;10307469;28;20046;-63
2022/03/02 19:37:59;;;;;;;16.42;14.40;;;;;;;8.65;34.51;100644.25;10306486;28;20122;-62
2022/03/02 19:43:00;;;;;;;16.45;14.75;;;;;;;8.62;34.23;100643.63;10308597;28;21017;-62
2022/03/02 19:48:05;;;;;;;16.67;14.63;;;;;;;8.49;34.43;100643.56;10306802;28;20132;-62
2022/03/02 19:53:13;;;;;;;17.52;14.18;;;;;;;8.44;34.67;100635.91;10298767;28;20076;-62
2022/03/02 19:58:15;;;;;;;16.75;13.23;;;;;;;8.35;35.03;100623.22;10297495;28;20050;-63
2022/03/02 20:03:17;;;;;;;17.95;15.27;;;;;;;8.39;35.06;100616.75;10294647;28;20045;-62
2022/03/02 20:08:18;;;;;;;14.90;13.35;;;;;;;8.47;35.53;100633.03;10307061;28;20570;-62
2022/03/02 20:13:20;;;;;;;14.35;12.85;;;;;;;8.54;36.23;100635.28;10314642;28;20054;-62
2022/03/02 20:18:23;;;;;;;15.50;13.40;;;;;;;8.41;35.58;100636.06;10330879;28;20347;-61
2022/03/02 20:23:24;;;;;;;16.58;14.45;;;;;;;8.44;36.12;100637.72;10334316;28;20108;-62
2022/03/02 20:28:26;;;;;;;16.90;14.50;;;;;;;8.37;35.16;100639.88;10329775;28;20049;-62
2022/03/02 20:33:29;;;;;;;15.65;13.82;;;;;;;8.19;36.18;100627.81;10317336;28;20417;-64
2022/03/02 20:38:31;;;;;;;16.98;14.48;;;;;;;8.27;35.88;100633.47;10319534;28;20061;-64
2022/03/02 20:43:32;;;;;;;15.00;13.48;;;;;;;8.28;36.13;100629.88;10308078;28;20538;-62
2022/03/02 20:48:34;;;;;;;16.10;12.80;;;;;;;8.12;35.94;100630.88;10307470;28;20126;-61
2022/03/02 20:53:35;;;;;;;14.70;13.23;;;;;;;8.05;36.72;100620.75;10302664;28;20148;-62
2022/03/02 20:58:39;;;;;;;15.95;14.25;;;;;;;7.98;36.42;100636.19;10308340;28;20054;-62
2022/03/02 21:03:43;;;;;;;17.92;14.32;;;;;;;7.63;36.80;100626.00;10312474;28;20050;-61
2022/03/02 21:08:45;;;;;;;17.83;14.38;;;;;;;7.58;37.80;100638.66;10305118;28;20132;-61
2022/03/02 21:13:47;;;;;;;15.95;14.20;;;;;;;7.37;38.05;100633.78;10331030;28;20053;-61
2022/03/02 21:18:48;;;;;;;16.50;14.48;;;;;;;7.33;38.26;100632.25;10334855;28;20042;-59
2022/03/02 21:23:49;;;;;;;19.38;15.60;;;;;;;7.31;38.50;100617.38;10335005;28;20057;-61
2022/03/02 21:28:51;;;;;;;16.27;14.45;;;;;;;7.36;38.48;100607.38;10331683;28;20041;-60
2022/03/02 21:33:53;;;;;;;18.48;15.40;;;;;;;7.27;38.69;100619.38;10326187;28;20061;-61
2022/03/02 21:38:55;;;;;;;19.00;14.75;;;;;;;7.40;38.61;100624.75;10348042;28;20075;-62
2022/03/02 21:43:56;;;;;;;17.25;14.95;;;;;;;7.38;38.75;100621.38;10355308;28;20064;-62
2022/03/02 21:48:58;;;;;;;16.35;14.60;;;;;;;7.42;38.39;100626.38;10352235;28;20674;-60
2022/03/02 21:54:00;;;;;;;17.38;15.15;;;;;;;7.23;38.72;100620.50;10354247;28;20053;-61
2022/03/02 21:59:02;;;;;;;17.67;15.60;;;;;;;7.18;38.86;100615.50;10350038;28;20050;-60
2022/03/02 22:04:04;;;;;;;22.20;17.33;;;;;;;7.09;39.45;100602.81;10352651;28;20053;-61
2022/03/02 22:09:05;;;;;;;17.27;15.50;;;;;;;7.06;39.41;100603.84;10353742;28;20050;-62
2022/03/02 22:14:07;;;;;;;17.63;15.75;;;;;;;6.80;39.68;100588.66;10354231;28;20460;-61
2022/03/02 22:19:08;;;;;;;18.48;16.27;;;;;;;6.84;39.89;100619.31;10351226;28;20608;-62
2022/03/02 22:24:10;;;;;;;17.48;15.57;;;;;;;6.80;40.54;100596.59;10352025;28;20464;-61
2022/03/02 22:29:11;;;;;;;18.52;15.60;;;;;;;6.81;40.19;100599.16;10350670;28;20073;-61
2022/03/02 22:34:12;;;;;;;17.98;16.08;;;;;;;6.73;40.32;100596.13;10351646;28;20050;-61
2022/03/02 22:39:15;;;;;;;19.88;16.38;;;;;;;6.54;40.54;100601.63;10352986;28;20081;-62
2022/03/02 22:44:17;;;;;;;22.45;17.73;;;;;;;6.57;41.17;100596.16;10348028;28;20483;-62
2022/03/02 22:49:18;;;;;;;18.30;16.45;;;;;;;6.57;41.05;100601.44;10350042;28;20058;-62
2022/03/02 22:54:21;;;;;;;19.25;16.65;;;;;;;6.31;41.02;100585.31;10357996;28;20057;-62
2022/03/02 22:59:22;;;;;;;17.52;15.57;;;;;;;6.23;41.92;100587.53;10352511;28;20215;-61
2022/03/02 23:15:04;;;;;;;18.90;16.92;;;;;;;5.88;42.25;100598.25;10313280;28;20635;-61
2022/03/02 23:20:07;;;;;;;17.73;15.95;;;;;;;5.48;42.54;100540.56;10307293;28;20133;-62
2022/03/02 23:25:10;;;;;;;18.63;16.38;;;;;;;5.65;42.29;100603.03;10316175;28;20050;-61
2022/03/02 23:30:13;;;;;;;19.00;16.35;;;;;;;5.56;42.70;100603.53;10309230;28;20121;-62